sensor_id;sensor_type;location;lat;lon;timestamp;P1;durP1;ratioP1;P2;durP2;ratioP2
9904;SDS011;4991;43.566;27.820;2023-04-06T00:01:39;15.37;;;10.97;;
9904;SDS011;4991;43.566;27.820;2023-04-06T00:04:04;15.63;;;11.83;;
9904;SDS011;4991;43.566;27.820;2023-04-06T00:06:31;15.57;;;11.73;;
9904;SDS011;4991;43.566;27.820;2023-04-06T00:08:57;14.90;;;11.20;;
9904;SDS011;4991;43.566;27.820;2023-04-06T00:11:23;15.17;;;11.57;;
9904;SDS011;4991;43.566;27.820;2023-04-06T00:13:48;14.00;;;10.03;;
9904;SDS011;4991;43.566;27.820;2023-04-06T00:16:14;14.63;;;10.00;;
9904;SDS011;4991;43.566;27.820;2023-04-06T00:18:40;11.63;;;8.30;;
9904;SDS011;4991;43.566;27.820;2023-04-06T00:21:06;11.10;;;8.50;;
9904;SDS011;4991;43.566;27.820;2023-04-06T00:23:32;13.00;;;8.37;;
9904;SDS011;4991;43.566;27.820;2023-04-06T00:25:57;10.10;;;8.17;;
9904;SDS011;4991;43.566;27.820;2023-04-06T00:28:23;10.30;;;8.43;;
9904;SDS011;4991;43.566;27.820;2023-04-06T00:30:52;11.30;;;7.77;;
9904;SDS011;4991;43.566;27.820;2023-04-06T00:33:19;10.60;;;7.43;;
9904;SDS011;4991;43.566;27.820;2023-04-06T00:35:45;10.17;;;7.80;;
9904;SDS011;4991;43.566;27.820;2023-04-06T00:38:11;12.13;;;7.60;;
9904;SDS011;4991;43.566;27.820;2023-04-06T00:40:37;9.87;;;7.47;;
9904;SDS011;4991;43.566;27.820;2023-04-06T00:43:05;9.87;;;7.47;;
9904;SDS011;4991;43.566;27.820;2023-04-06T00:45:31;10.60;;;7.13;;
9904;SDS011;4991;43.566;27.820;2023-04-06T00:47:57;8.93;;;7.43;;
9904;SDS011;4991;43.566;27.820;2023-04-06T00:50:23;9.13;;;6.63;;
9904;SDS011;4991;43.566;27.820;2023-04-06T00:52:49;11.27;;;6.87;;
9904;SDS011;4991;43.566;27.820;2023-04-06T00:55:16;8.47;;;6.53;;
9904;SDS011;4991;43.566;27.820;2023-04-06T00:57:42;9.20;;;7.10;;
9904;SDS011;4991;43.566;27.820;2023-04-06T01:00:08;9.70;;;7.37;;
9904;SDS011;4991;43.566;27.820;2023-04-06T01:02:35;9.60;;;7.00;;
9904;SDS011;4991;43.566;27.820;2023-04-06T01:05:01;9.60;;;7.50;;
9904;SDS011;4991;43.566;27.820;2023-04-06T01:07:27;9.27;;;6.70;;
9904;SDS011;4991;43.566;27.820;2023-04-06T01:09:53;9.00;;;6.93;;
9904;SDS011;4991;43.566;27.820;2023-04-06T01:12:19;12.57;;;7.40;;
9904;SDS011;4991;43.566;27.820;2023-04-06T01:14:45;8.40;;;6.30;;
9904;SDS011;4991;43.566;27.820;2023-04-06T01:17:11;8.60;;;6.63;;
9904;SDS011;4991;43.566;27.820;2023-04-06T01:19:37;8.33;;;6.93;;
9904;SDS011;4991;43.566;27.820;2023-04-06T01:22:03;9.53;;;6.87;;
9904;SDS011;4991;43.566;27.820;2023-04-06T01:24:29;8.90;;;6.13;;
9904;SDS011;4991;43.566;27.820;2023-04-06T01:26:54;8.83;;;6.87;;
9904;SDS011;4991;43.566;27.820;2023-04-06T01:29:21;9.97;;;6.23;;
9904;SDS011;4991;43.566;27.820;2023-04-06T01:31:47;7.77;;;6.10;;
9904;SDS011;4991;43.566;27.820;2023-04-06T01:34:13;9.23;;;7.03;;
9904;SDS011;4991;43.566;27.820;2023-04-06T01:36:38;10.57;;;7.90;;
9904;SDS011;4991;43.566;27.820;2023-04-06T01:39:04;9.53;;;7.47;;
9904;SDS011;4991;43.566;27.820;2023-04-06T01:41:30;13.83;;;7.87;;
9904;SDS011;4991;43.566;27.820;2023-04-06T01:43:56;9.57;;;7.80;;
9904;SDS011;4991;43.566;27.820;2023-04-06T01:46:21;9.87;;;7.50;;
9904;SDS011;4991;43.566;27.820;2023-04-06T01:48:47;14.63;;;8.77;;
9904;SDS011;4991;43.566;27.820;2023-04-06T01:51:12;11.13;;;7.80;;
9904;SDS011;4991;43.566;27.820;2023-04-06T01:53:38;11.40;;;8.20;;
9904;SDS011;4991;43.566;27.820;2023-04-06T01:56:04;10.93;;;8.50;;
9904;SDS011;4991;43.566;27.820;2023-04-06T01:58:30;13.53;;;9.33;;
9904;SDS011;4991;43.566;27.820;2023-04-06T02:00:56;11.23;;;8.13;;
9904;SDS011;4991;43.566;27.820;2023-04-06T02:03:21;11.17;;;8.30;;
9904;SDS011;4991;43.566;27.820;2023-04-06T02:05:47;11.30;;;9.07;;
9904;SDS011;4991;43.566;27.820;2023-04-06T02:08:12;13.37;;;8.67;;
9904;SDS011;4991;43.566;27.820;2023-04-06T02:10:38;12.40;;;8.47;;
9904;SDS011;4991;43.566;27.820;2023-04-06T02:13:04;12.30;;;9.73;;
9904;SDS011;4991;43.566;27.820;2023-04-06T02:15:29;9.93;;;7.80;;
9904;SDS011;4991;43.566;27.820;2023-04-06T02:17:55;13.27;;;10.10;;
9904;SDS011;4991;43.566;27.820;2023-04-06T02:20:20;13.83;;;9.87;;
9904;SDS011;4991;43.566;27.820;2023-04-06T02:22:46;12.23;;;9.53;;
9904;SDS011;4991;43.566;27.820;2023-04-06T02:25:12;11.90;;;8.50;;
9904;SDS011;4991;43.566;27.820;2023-04-06T02:27:38;12.23;;;9.07;;
9904;SDS011;4991;43.566;27.820;2023-04-06T02:30:03;12.77;;;10.17;;
9904;SDS011;4991;43.566;27.820;2023-04-06T02:32:29;12.67;;;9.40;;
9904;SDS011;4991;43.566;27.820;2023-04-06T02:34:55;12.03;;;9.70;;
9904;SDS011;4991;43.566;27.820;2023-04-06T02:37:21;10.83;;;9.30;;
9904;SDS011;4991;43.566;27.820;2023-04-06T02:39:48;14.10;;;10.33;;
9904;SDS011;4991;43.566;27.820;2023-04-06T02:42:13;11.83;;;8.70;;
9904;SDS011;4991;43.566;27.820;2023-04-06T02:44:41;13.73;;;9.70;;
9904;SDS011;4991;43.566;27.820;2023-04-06T02:47:07;12.90;;;9.27;;
9904;SDS011;4991;43.566;27.820;2023-04-06T02:49:32;13.40;;;10.60;;
9904;SDS011;4991;43.566;27.820;2023-04-06T02:51:58;12.67;;;10.17;;
9904;SDS011;4991;43.566;27.820;2023-04-06T02:54:24;12.63;;;9.63;;
9904;SDS011;4991;43.566;27.820;2023-04-06T02:56:50;14.63;;;11.20;;
9904;SDS011;4991;43.566;27.820;2023-04-06T02:59:15;13.50;;;10.43;;
9904;SDS011;4991;43.566;27.820;2023-04-06T03:01:41;12.93;;;10.37;;
9904;SDS011;4991;43.566;27.820;2023-04-06T03:04:06;12.83;;;10.80;;
9904;SDS011;4991;43.566;27.820;2023-04-06T03:06:32;15.27;;;11.67;;
9904;SDS011;4991;43.566;27.820;2023-04-06T03:08:58;11.83;;;9.23;;
9904;SDS011;4991;43.566;27.820;2023-04-06T03:11:23;12.13;;;8.07;;
9904;SDS011;4991;43.566;27.820;2023-04-06T03:13:49;12.07;;;10.00;;
9904;SDS011;4991;43.566;27.820;2023-04-06T03:16:14;15.57;;;10.50;;
9904;SDS011;4991;43.566;27.820;2023-04-06T03:18:40;11.97;;;9.60;;
9904;SDS011;4991;43.566;27.820;2023-04-06T03:21:06;14.63;;;10.30;;
9904;SDS011;4991;43.566;27.820;2023-04-06T03:23:31;11.87;;;10.03;;
9904;SDS011;4991;43.566;27.820;2023-04-06T03:25:57;12.20;;;8.43;;
9904;SDS011;4991;43.566;27.820;2023-04-06T03:28:23;14.40;;;9.17;;
9904;SDS011;4991;43.566;27.820;2023-04-06T03:30:48;12.83;;;10.10;;
9904;SDS011;4991;43.566;27.820;2023-04-06T03:33:14;14.97;;;10.90;;
9904;SDS011;4991;43.566;27.820;2023-04-06T03:35:40;11.67;;;9.17;;
9904;SDS011;4991;43.566;27.820;2023-04-06T03:38:06;13.70;;;11.07;;
9904;SDS011;4991;43.566;27.820;2023-04-06T03:40:31;12.20;;;10.80;;
9904;SDS011;4991;43.566;27.820;2023-04-06T03:42:57;15.47;;;11.07;;
9904;SDS011;4991;43.566;27.820;2023-04-06T03:45:23;15.57;;;11.10;;
9904;SDS011;4991;43.566;27.820;2023-04-06T03:47:48;21.23;;;13.40;;
9904;SDS011;4991;43.566;27.820;2023-04-06T03:50:14;23.30;;;11.43;;
9904;SDS011;4991;43.566;27.820;2023-04-06T03:52:40;17.30;;;11.10;;
9904;SDS011;4991;43.566;27.820;2023-04-06T03:55:06;18.50;;;11.83;;
9904;SDS011;4991;43.566;27.820;2023-04-06T03:57:33;19.23;;;12.73;;
9904;SDS011;4991;43.566;27.820;2023-04-06T03:59:58;16.90;;;10.67;;
9904;SDS011;4991;43.566;27.820;2023-04-06T04:02:24;13.47;;;11.80;;
9904;SDS011;4991;43.566;27.820;2023-04-06T04:04:50;15.33;;;11.53;;
9904;SDS011;4991;43.566;27.820;2023-04-06T04:07:15;13.30;;;10.60;;
9904;SDS011;4991;43.566;27.820;2023-04-06T04:09:41;13.90;;;10.77;;
9904;SDS011;4991;43.566;27.820;2023-04-06T04:12:07;11.73;;;7.43;;
9904;SDS011;4991;43.566;27.820;2023-04-06T04:14:32;19.33;;;10.67;;
9904;SDS011;4991;43.566;27.820;2023-04-06T04:16:58;12.27;;;7.90;;
9904;SDS011;4991;43.566;27.820;2023-04-06T04:19:25;13.13;;;10.73;;
9904;SDS011;4991;43.566;27.820;2023-04-06T04:21:50;11.73;;;8.93;;
9904;SDS011;4991;43.566;27.820;2023-04-06T04:24:16;13.40;;;9.37;;
9904;SDS011;4991;43.566;27.820;2023-04-06T04:26:42;10.40;;;7.87;;
9904;SDS011;4991;43.566;27.820;2023-04-06T04:29:07;14.30;;;9.77;;
9904;SDS011;4991;43.566;27.820;2023-04-06T04:31:33;11.27;;;9.47;;
9904;SDS011;4991;43.566;27.820;2023-04-06T04:33:59;8.83;;;7.00;;
9904;SDS011;4991;43.566;27.820;2023-04-06T04:36:25;17.37;;;11.10;;
9904;SDS011;4991;43.566;27.820;2023-04-06T04:38:51;11.37;;;9.50;;
9904;SDS011;4991;43.566;27.820;2023-04-06T04:41:17;11.77;;;9.90;;
9904;SDS011;4991;43.566;27.820;2023-04-06T04:43:43;10.43;;;7.07;;
9904;SDS011;4991;43.566;27.820;2023-04-06T04:46:09;13.03;;;9.53;;
9904;SDS011;4991;43.566;27.820;2023-04-06T04:48:35;8.90;;;6.13;;
9904;SDS011;4991;43.566;27.820;2023-04-06T04:51:01;11.53;;;9.03;;
9904;SDS011;4991;43.566;27.820;2023-04-06T04:53:26;9.47;;;7.70;;
9904;SDS011;4991;43.566;27.820;2023-04-06T04:55:52;13.67;;;10.37;;
9904;SDS011;4991;43.566;27.820;2023-04-06T04:58:18;12.97;;;10.20;;
9904;SDS011;4991;43.566;27.820;2023-04-06T05:00:45;14.37;;;10.17;;
9904;SDS011;4991;43.566;27.820;2023-04-06T05:03:16;14.60;;;9.50;;
9904;SDS011;4991;43.566;27.820;2023-04-06T05:05:45;12.53;;;10.13;;
9904;SDS011;4991;43.566;27.820;2023-04-06T05:08:11;12.27;;;10.40;;
9904;SDS011;4991;43.566;27.820;2023-04-06T05:10:37;14.10;;;10.80;;
9904;SDS011;4991;43.566;27.820;2023-04-06T05:13:02;14.27;;;10.93;;
9904;SDS011;4991;43.566;27.820;2023-04-06T05:15:28;7.90;;;6.07;;
9904;SDS011;4991;43.566;27.820;2023-04-06T05:17:54;13.40;;;9.10;;
9904;SDS011;4991;43.566;27.820;2023-04-06T05:20:20;11.07;;;8.17;;
9904;SDS011;4991;43.566;27.820;2023-04-06T05:22:45;10.93;;;8.93;;
9904;SDS011;4991;43.566;27.820;2023-04-06T05:25:11;13.73;;;9.83;;
9904;SDS011;4991;43.566;27.820;2023-04-06T05:27:36;13.50;;;9.43;;
9904;SDS011;4991;43.566;27.820;2023-04-06T05:30:02;10.80;;;9.17;;
9904;SDS011;4991;43.566;27.820;2023-04-06T05:32:28;10.30;;;7.57;;
9904;SDS011;4991;43.566;27.820;2023-04-06T05:34:54;11.33;;;9.33;;
9904;SDS011;4991;43.566;27.820;2023-04-06T05:37:19;13.80;;;8.60;;
9904;SDS011;4991;43.566;27.820;2023-04-06T05:39:45;14.23;;;10.50;;
9904;SDS011;4991;43.566;27.820;2023-04-06T05:42:11;12.97;;;9.87;;
9904;SDS011;4991;43.566;27.820;2023-04-06T05:44:37;12.87;;;8.27;;
9904;SDS011;4991;43.566;27.820;2023-04-06T05:47:03;16.03;;;9.53;;
9904;SDS011;4991;43.566;27.820;2023-04-06T05:49:28;14.60;;;11.10;;
9904;SDS011;4991;43.566;27.820;2023-04-06T05:51:54;14.50;;;10.47;;
9904;SDS011;4991;43.566;27.820;2023-04-06T05:54:20;11.40;;;7.73;;
9904;SDS011;4991;43.566;27.820;2023-04-06T05:56:46;13.80;;;8.83;;
9904;SDS011;4991;43.566;27.820;2023-04-06T05:59:12;11.80;;;9.63;;
9904;SDS011;4991;43.566;27.820;2023-04-06T06:01:37;12.47;;;10.10;;
9904;SDS011;4991;43.566;27.820;2023-04-06T06:04:03;12.87;;;9.30;;
9904;SDS011;4991;43.566;27.820;2023-04-06T06:06:29;10.00;;;7.70;;
9904;SDS011;4991;43.566;27.820;2023-04-06T06:08:57;15.20;;;9.80;;
9904;SDS011;4991;43.566;27.820;2023-04-06T06:11:27;14.20;;;10.30;;
9904;SDS011;4991;43.566;27.820;2023-04-06T06:13:53;12.43;;;8.23;;
9904;SDS011;4991;43.566;27.820;2023-04-06T06:16:19;12.43;;;8.80;;
9904;SDS011;4991;43.566;27.820;2023-04-06T06:18:45;12.47;;;9.40;;
9904;SDS011;4991;43.566;27.820;2023-04-06T06:21:10;15.93;;;8.90;;
9904;SDS011;4991;43.566;27.820;2023-04-06T06:23:41;11.57;;;9.40;;
9904;SDS011;4991;43.566;27.820;2023-04-06T06:26:07;12.07;;;8.67;;
9904;SDS011;4991;43.566;27.820;2023-04-06T06:28:33;9.87;;;8.23;;
9904;SDS011;4991;43.566;27.820;2023-04-06T06:30:59;11.77;;;8.60;;
9904;SDS011;4991;43.566;27.820;2023-04-06T06:33:24;13.40;;;7.97;;
9904;SDS011;4991;43.566;27.820;2023-04-06T06:35:51;9.23;;;7.53;;
9904;SDS011;4991;43.566;27.820;2023-04-06T06:38:17;9.50;;;7.67;;
9904;SDS011;4991;43.566;27.820;2023-04-06T06:40:42;9.63;;;7.37;;
9904;SDS011;4991;43.566;27.820;2023-04-06T06:43:08;10.60;;;7.90;;
9904;SDS011;4991;43.566;27.820;2023-04-06T06:45:34;10.97;;;7.27;;
9904;SDS011;4991;43.566;27.820;2023-04-06T06:48:00;10.30;;;8.60;;
9904;SDS011;4991;43.566;27.820;2023-04-06T06:50:27;9.70;;;7.47;;
9904;SDS011;4991;43.566;27.820;2023-04-06T06:52:52;10.27;;;8.20;;
9904;SDS011;4991;43.566;27.820;2023-04-06T06:55:18;11.70;;;8.87;;
9904;SDS011;4991;43.566;27.820;2023-04-06T06:57:46;12.10;;;8.17;;
9904;SDS011;4991;43.566;27.820;2023-04-06T07:00:12;11.57;;;7.30;;
9904;SDS011;4991;43.566;27.820;2023-04-06T07:02:39;10.17;;;8.27;;
9904;SDS011;4991;43.566;27.820;2023-04-06T07:05:05;9.33;;;7.13;;
9904;SDS011;4991;43.566;27.820;2023-04-06T07:07:31;10.23;;;7.60;;
9904;SDS011;4991;43.566;27.820;2023-04-06T07:09:58;11.93;;;8.87;;
9904;SDS011;4991;43.566;27.820;2023-04-06T07:12:24;8.77;;;7.20;;
9904;SDS011;4991;43.566;27.820;2023-04-06T07:14:50;9.53;;;7.77;;
9904;SDS011;4991;43.566;27.820;2023-04-06T07:17:16;13.07;;;7.67;;
9904;SDS011;4991;43.566;27.820;2023-04-06T07:19:41;11.23;;;8.20;;
9904;SDS011;4991;43.566;27.820;2023-04-06T07:22:07;13.57;;;9.20;;
9904;SDS011;4991;43.566;27.820;2023-04-06T07:24:33;8.97;;;6.73;;
9904;SDS011;4991;43.566;27.820;2023-04-06T07:26:59;10.50;;;8.90;;
9904;SDS011;4991;43.566;27.820;2023-04-06T07:29:26;9.83;;;8.57;;
9904;SDS011;4991;43.566;27.820;2023-04-06T07:31:52;11.60;;;9.17;;
9904;SDS011;4991;43.566;27.820;2023-04-06T07:34:18;10.20;;;8.60;;
9904;SDS011;4991;43.566;27.820;2023-04-06T07:36:44;11.73;;;9.23;;
9904;SDS011;4991;43.566;27.820;2023-04-06T07:39:10;10.73;;;8.43;;
9904;SDS011;4991;43.566;27.820;2023-04-06T07:41:36;11.27;;;7.87;;
9904;SDS011;4991;43.566;27.820;2023-04-06T07:44:01;9.33;;;7.53;;
9904;SDS011;4991;43.566;27.820;2023-04-06T07:46:27;10.40;;;8.00;;
9904;SDS011;4991;43.566;27.820;2023-04-06T07:48:53;10.00;;;8.13;;
9904;SDS011;4991;43.566;27.820;2023-04-06T07:51:18;8.13;;;6.97;;
9904;SDS011;4991;43.566;27.820;2023-04-06T07:53:44;9.80;;;7.27;;
9904;SDS011;4991;43.566;27.820;2023-04-06T07:56:10;9.63;;;7.23;;
9904;SDS011;4991;43.566;27.820;2023-04-06T07:58:37;8.83;;;7.40;;
9904;SDS011;4991;43.566;27.820;2023-04-06T08:01:03;11.73;;;8.10;;
9904;SDS011;4991;43.566;27.820;2023-04-06T08:03:29;9.97;;;8.57;;
9904;SDS011;4991;43.566;27.820;2023-04-06T08:05:54;12.07;;;7.97;;
9904;SDS011;4991;43.566;27.820;2023-04-06T08:08:20;11.63;;;7.43;;
9904;SDS011;4991;43.566;27.820;2023-04-06T08:10:49;9.83;;;7.97;;
9904;SDS011;4991;43.566;27.820;2023-04-06T08:13:14;9.23;;;7.97;;
9904;SDS011;4991;43.566;27.820;2023-04-06T08:15:41;9.57;;;7.87;;
9904;SDS011;4991;43.566;27.820;2023-04-06T08:18:07;10.17;;;8.07;;
9904;SDS011;4991;43.566;27.820;2023-04-06T08:20:34;10.93;;;8.90;;
9904;SDS011;4991;43.566;27.820;2023-04-06T08:23:00;11.87;;;8.10;;
9904;SDS011;4991;43.566;27.820;2023-04-06T08:25:25;9.30;;;7.27;;
9904;SDS011;4991;43.566;27.820;2023-04-06T08:27:51;8.87;;;7.60;;
9904;SDS011;4991;43.566;27.820;2023-04-06T08:30:17;9.73;;;7.97;;
9904;SDS011;4991;43.566;27.820;2023-04-06T08:32:44;11.37;;;8.33;;
9904;SDS011;4991;43.566;27.820;2023-04-06T08:35:11;10.17;;;8.40;;
9904;SDS011;4991;43.566;27.820;2023-04-06T08:37:37;11.80;;;8.23;;
9904;SDS011;4991;43.566;27.820;2023-04-06T08:40:03;11.27;;;8.07;;
9904;SDS011;4991;43.566;27.820;2023-04-06T08:42:31;11.67;;;9.07;;
9904;SDS011;4991;43.566;27.820;2023-04-06T08:44:58;11.23;;;8.30;;
9904;SDS011;4991;43.566;27.820;2023-04-06T08:47:25;10.90;;;8.13;;
9904;SDS011;4991;43.566;27.820;2023-04-06T08:49:51;11.20;;;8.73;;
9904;SDS011;4991;43.566;27.820;2023-04-06T08:52:18;12.33;;;8.37;;
9904;SDS011;4991;43.566;27.820;2023-04-06T08:54:44;9.37;;;7.73;;
9904;SDS011;4991;43.566;27.820;2023-04-06T08:57:10;11.13;;;8.70;;
9904;SDS011;4991;43.566;27.820;2023-04-06T08:59:36;11.17;;;8.27;;
9904;SDS011;4991;43.566;27.820;2023-04-06T09:02:03;12.87;;;10.00;;
9904;SDS011;4991;43.566;27.820;2023-04-06T09:04:31;13.23;;;9.77;;
9904;SDS011;4991;43.566;27.820;2023-04-06T09:06:58;12.43;;;9.00;;
9904;SDS011;4991;43.566;27.820;2023-04-06T09:09:25;14.87;;;9.87;;
9904;SDS011;4991;43.566;27.820;2023-04-06T09:11:51;9.93;;;8.30;;
9904;SDS011;4991;43.566;27.820;2023-04-06T09:14:17;16.17;;;9.13;;
9904;SDS011;4991;43.566;27.820;2023-04-06T09:16:58;9.67;;;7.73;;
9904;SDS011;4991;43.566;27.820;2023-04-06T09:19:23;9.97;;;8.23;;
9904;SDS011;4991;43.566;27.820;2023-04-06T09:21:49;9.80;;;7.93;;
9904;SDS011;4991;43.566;27.820;2023-04-06T09:24:14;9.77;;;8.53;;
9904;SDS011;4991;43.566;27.820;2023-04-06T09:26:46;12.13;;;9.33;;
9904;SDS011;4991;43.566;27.820;2023-04-06T09:29:21;9.77;;;8.30;;
9904;SDS011;4991;43.566;27.820;2023-04-06T09:31:49;9.63;;;7.60;;
9904;SDS011;4991;43.566;27.820;2023-04-06T09:34:21;9.53;;;8.20;;
9904;SDS011;4991;43.566;27.820;2023-04-06T09:36:48;11.87;;;9.53;;
9904;SDS011;4991;43.566;27.820;2023-04-06T09:39:14;13.10;;;9.60;;
9904;SDS011;4991;43.566;27.820;2023-04-06T09:41:39;10.10;;;7.77;;
9904;SDS011;4991;43.566;27.820;2023-04-06T09:44:06;16.57;;;10.07;;
9904;SDS011;4991;43.566;27.820;2023-04-06T09:46:40;11.60;;;9.10;;
9904;SDS011;4991;43.566;27.820;2023-04-06T09:49:08;9.63;;;7.27;;
9904;SDS011;4991;43.566;27.820;2023-04-06T09:54:03;10.87;;;9.00;;
9904;SDS011;4991;43.566;27.820;2023-04-06T09:56:31;11.57;;;8.63;;
9904;SDS011;4991;43.566;27.820;2023-04-06T09:59:18;12.97;;;9.37;;
9904;SDS011;4991;43.566;27.820;2023-04-06T10:01:51;11.03;;;8.73;;
9904;SDS011;4991;43.566;27.820;2023-04-06T10:04:21;11.43;;;9.20;;
9904;SDS011;4991;43.566;27.820;2023-04-06T10:06:55;14.13;;;9.83;;
9904;SDS011;4991;43.566;27.820;2023-04-06T10:09:24;11.37;;;9.13;;
9904;SDS011;4991;43.566;27.820;2023-04-06T10:11:53;13.43;;;11.10;;
9904;SDS011;4991;43.566;27.820;2023-04-06T10:14:20;13.53;;;9.83;;
9904;SDS011;4991;43.566;27.820;2023-04-06T10:16:48;11.60;;;8.50;;
9904;SDS011;4991;43.566;27.820;2023-04-06T10:19:22;10.63;;;8.77;;
9904;SDS011;4991;43.566;27.820;2023-04-06T10:21:52;12.47;;;9.10;;
9904;SDS011;4991;43.566;27.820;2023-04-06T10:24:22;11.50;;;9.63;;
9904;SDS011;4991;43.566;27.820;2023-04-06T10:26:58;14.57;;;9.70;;
9904;SDS011;4991;43.566;27.820;2023-04-06T10:29:27;13.60;;;9.17;;
9904;SDS011;4991;43.566;27.820;2023-04-06T10:31:53;11.17;;;8.40;;
9904;SDS011;4991;43.566;27.820;2023-04-06T10:34:20;10.43;;;7.80;;
9904;SDS011;4991;43.566;27.820;2023-04-06T10:36:46;11.73;;;9.63;;
9904;SDS011;4991;43.566;27.820;2023-04-06T10:39:11;15.80;;;10.17;;
9904;SDS011;4991;43.566;27.820;2023-04-06T10:41:42;11.53;;;9.77;;
9904;SDS011;4991;43.566;27.820;2023-04-06T10:44:16;11.13;;;8.03;;
9904;SDS011;4991;43.566;27.820;2023-04-06T10:46:53;12.73;;;10.30;;
9904;SDS011;4991;43.566;27.820;2023-04-06T10:49:20;13.60;;;9.27;;
9904;SDS011;4991;43.566;27.820;2023-04-06T10:51:50;9.87;;;8.67;;
9904;SDS011;4991;43.566;27.820;2023-04-06T10:54:23;11.23;;;8.83;;
9904;SDS011;4991;43.566;27.820;2023-04-06T10:56:51;12.73;;;10.23;;
9904;SDS011;4991;43.566;27.820;2023-04-06T10:59:20;10.27;;;9.13;;
9904;SDS011;4991;43.566;27.820;2023-04-06T11:01:47;12.00;;;8.83;;
9904;SDS011;4991;43.566;27.820;2023-04-06T11:04:15;10.87;;;9.07;;
9904;SDS011;4991;43.566;27.820;2023-04-06T11:06:46;10.07;;;8.67;;
9904;SDS011;4991;43.566;27.820;2023-04-06T11:09:29;13.37;;;9.33;;
9904;SDS011;4991;43.566;27.820;2023-04-06T11:11:57;12.83;;;8.43;;
9904;SDS011;4991;43.566;27.820;2023-04-06T11:14:22;12.37;;;9.87;;
9904;SDS011;4991;43.566;27.820;2023-04-06T11:16:48;11.87;;;10.27;;
9904;SDS011;4991;43.566;27.820;2023-04-06T11:19:17;13.10;;;9.70;;
9904;SDS011;4991;43.566;27.820;2023-04-06T11:21:44;10.83;;;8.67;;
9904;SDS011;4991;43.566;27.820;2023-04-06T11:24:13;10.30;;;7.47;;
9904;SDS011;4991;43.566;27.820;2023-04-06T11:26:47;13.50;;;8.27;;
9904;SDS011;4991;43.566;27.820;2023-04-06T11:29:17;10.87;;;9.03;;
9904;SDS011;4991;43.566;27.820;2023-04-06T11:31:47;9.57;;;7.57;;
9904;SDS011;4991;43.566;27.820;2023-04-06T11:34:18;13.30;;;8.63;;
9904;SDS011;4991;43.566;27.820;2023-04-06T11:36:48;12.03;;;9.20;;
9904;SDS011;4991;43.566;27.820;2023-04-06T11:39:20;14.37;;;7.70;;
9904;SDS011;4991;43.566;27.820;2023-04-06T11:41:48;11.47;;;7.50;;
9904;SDS011;4991;43.566;27.820;2023-04-06T11:44:15;9.77;;;7.83;;
9904;SDS011;4991;43.566;27.820;2023-04-06T11:46:52;8.83;;;7.77;;
9904;SDS011;4991;43.566;27.820;2023-04-06T11:49:19;8.20;;;6.77;;
9904;SDS011;4991;43.566;27.820;2023-04-06T11:51:45;9.93;;;8.20;;
9904;SDS011;4991;43.566;27.820;2023-04-06T11:54:11;13.27;;;8.07;;
9904;SDS011;4991;43.566;27.820;2023-04-06T11:56:38;11.43;;;8.00;;
9904;SDS011;4991;43.566;27.820;2023-04-06T11:59:03;12.07;;;9.77;;
9904;SDS011;4991;43.566;27.820;2023-04-06T12:01:29;10.13;;;8.67;;
9904;SDS011;4991;43.566;27.820;2023-04-06T12:03:55;12.67;;;9.47;;
9904;SDS011;4991;43.566;27.820;2023-04-06T12:06:21;8.83;;;7.93;;
9904;SDS011;4991;43.566;27.820;2023-04-06T12:08:48;11.77;;;8.60;;
9904;SDS011;4991;43.566;27.820;2023-04-06T12:11:14;10.17;;;8.40;;
9904;SDS011;4991;43.566;27.820;2023-04-06T12:13:39;12.50;;;9.13;;
9904;SDS011;4991;43.566;27.820;2023-04-06T12:16:05;10.73;;;8.87;;
9904;SDS011;4991;43.566;27.820;2023-04-06T12:18:31;11.80;;;9.57;;
9904;SDS011;4991;43.566;27.820;2023-04-06T12:20:56;9.43;;;8.43;;
9904;SDS011;4991;43.566;27.820;2023-04-06T12:23:22;13.27;;;7.60;;
9904;SDS011;4991;43.566;27.820;2023-04-06T12:25:48;13.63;;;9.00;;
9904;SDS011;4991;43.566;27.820;2023-04-06T12:28:13;10.23;;;8.33;;
9904;SDS011;4991;43.566;27.820;2023-04-06T12:30:39;10.10;;;8.93;;
9904;SDS011;4991;43.566;27.820;2023-04-06T12:33:06;10.37;;;8.27;;
9904;SDS011;4991;43.566;27.820;2023-04-06T12:35:36;10.90;;;8.17;;
9904;SDS011;4991;43.566;27.820;2023-04-06T12:38:02;9.53;;;8.07;;
9904;SDS011;4991;43.566;27.820;2023-04-06T12:40:28;9.27;;;8.10;;
9904;SDS011;4991;43.566;27.820;2023-04-06T12:42:53;7.77;;;6.90;;
9904;SDS011;4991;43.566;27.820;2023-04-06T12:45:20;8.87;;;7.97;;
9904;SDS011;4991;43.566;27.820;2023-04-06T12:47:45;8.33;;;7.47;;
9904;SDS011;4991;43.566;27.820;2023-04-06T12:50:11;10.47;;;7.37;;
9904;SDS011;4991;43.566;27.820;2023-04-06T12:52:37;10.63;;;6.53;;
9904;SDS011;4991;43.566;27.820;2023-04-06T12:55:02;8.80;;;7.27;;
9904;SDS011;4991;43.566;27.820;2023-04-06T12:57:30;9.10;;;7.57;;
9904;SDS011;4991;43.566;27.820;2023-04-06T12:59:56;9.70;;;7.53;;
9904;SDS011;4991;43.566;27.820;2023-04-06T13:02:22;8.97;;;7.63;;
9904;SDS011;4991;43.566;27.820;2023-04-06T13:04:48;10.63;;;8.23;;
9904;SDS011;4991;43.566;27.820;2023-04-06T13:07:14;8.80;;;7.67;;
9904;SDS011;4991;43.566;27.820;2023-04-06T13:09:40;9.27;;;7.73;;
9904;SDS011;4991;43.566;27.820;2023-04-06T13:12:06;11.57;;;8.07;;
9904;SDS011;4991;43.566;27.820;2023-04-06T13:14:31;9.50;;;7.63;;
9904;SDS011;4991;43.566;27.820;2023-04-06T13:16:57;9.27;;;8.23;;
9904;SDS011;4991;43.566;27.820;2023-04-06T13:19:23;9.67;;;8.17;;
9904;SDS011;4991;43.566;27.820;2023-04-06T13:21:50;11.67;;;8.90;;
9904;SDS011;4991;43.566;27.820;2023-04-06T13:24:15;9.87;;;7.20;;
9904;SDS011;4991;43.566;27.820;2023-04-06T13:26:41;11.43;;;7.73;;
9904;SDS011;4991;43.566;27.820;2023-04-06T13:29:06;9.93;;;8.00;;
9904;SDS011;4991;43.566;27.820;2023-04-06T13:31:32;11.23;;;6.80;;
9904;SDS011;4991;43.566;27.820;2023-04-06T13:33:58;10.30;;;7.00;;
9904;SDS011;4991;43.566;27.820;2023-04-06T13:36:23;11.07;;;7.20;;
9904;SDS011;4991;43.566;27.820;2023-04-06T13:38:51;12.47;;;8.00;;
9904;SDS011;4991;43.566;27.820;2023-04-06T13:41:20;10.47;;;7.33;;
9904;SDS011;4991;43.566;27.820;2023-04-06T13:43:48;10.90;;;8.27;;
9904;SDS011;4991;43.566;27.820;2023-04-06T13:46:14;9.07;;;7.13;;
9904;SDS011;4991;43.566;27.820;2023-04-06T13:48:40;10.60;;;7.23;;
9904;SDS011;4991;43.566;27.820;2023-04-06T13:51:09;11.90;;;8.63;;
9904;SDS011;4991;43.566;27.820;2023-04-06T13:53:36;8.67;;;7.77;;
9904;SDS011;4991;43.566;27.820;2023-04-06T13:56:01;7.57;;;6.43;;
9904;SDS011;4991;43.566;27.820;2023-04-06T13:58:27;8.10;;;6.80;;
9904;SDS011;4991;43.566;27.820;2023-04-06T14:00:53;10.60;;;7.60;;
9904;SDS011;4991;43.566;27.820;2023-04-06T14:03:18;9.10;;;7.03;;
9904;SDS011;4991;43.566;27.820;2023-04-06T14:05:45;8.63;;;6.17;;
9904;SDS011;4991;43.566;27.820;2023-04-06T14:08:11;11.73;;;7.60;;
9904;SDS011;4991;43.566;27.820;2023-04-06T14:10:40;10.60;;;7.47;;
9904;SDS011;4991;43.566;27.820;2023-04-06T14:13:07;13.40;;;7.17;;
9904;SDS011;4991;43.566;27.820;2023-04-06T14:15:34;11.07;;;7.90;;
9904;SDS011;4991;43.566;27.820;2023-04-06T14:18:00;7.80;;;6.63;;
9904;SDS011;4991;43.566;27.820;2023-04-06T14:20:26;7.40;;;6.57;;
9904;SDS011;4991;43.566;27.820;2023-04-06T14:22:52;10.73;;;6.83;;
9904;SDS011;4991;43.566;27.820;2023-04-06T14:25:19;8.00;;;6.83;;
9904;SDS011;4991;43.566;27.820;2023-04-06T14:27:45;7.97;;;6.37;;
9904;SDS011;4991;43.566;27.820;2023-04-06T14:30:11;8.10;;;6.70;;
9904;SDS011;4991;43.566;27.820;2023-04-06T14:32:37;6.70;;;6.00;;
9904;SDS011;4991;43.566;27.820;2023-04-06T14:35:04;9.90;;;7.67;;
9904;SDS011;4991;43.566;27.820;2023-04-06T14:37:30;8.73;;;6.90;;
9904;SDS011;4991;43.566;27.820;2023-04-06T14:39:55;8.57;;;6.87;;
9904;SDS011;4991;43.566;27.820;2023-04-06T14:42:21;10.13;;;7.27;;
9904;SDS011;4991;43.566;27.820;2023-04-06T14:44:47;8.57;;;6.47;;
9904;SDS011;4991;43.566;27.820;2023-04-06T14:47:14;9.37;;;6.87;;
9904;SDS011;4991;43.566;27.820;2023-04-06T14:49:45;9.90;;;6.57;;